KGNV/GNV METAR and TAF weather

Enter ICAO airport designator
Station Type Date Time Source
KGNV METAR 2020/10/20 17:53 UTC NOAA

KGNV 201753Z 06010KT 10SM SCT029 SCT039 BKN060 28/23 A3007 RMK AO2 SLP178 T02780228 10283 20222 58017


Station Type Date Time Source
KGNV Decoded METAR 2020/10/20 17:53 UTC NOAA

GAINESVILLE REGIONAL AIRPORT , FL, United States (KGNV) 29-42N 082-17W 45M
Oct 20, 2020 - 01:53 PM EDT / 2020.10.20 1753 UTC
Wind: from the ENE (060 degrees) at 12 MPH (10 KT):0
Visibility: 10 mile(s):0
Sky conditions: mostly cloudy
Temperature: 82.0 F (27.8 C)
Dew Point: 73.0 F (22.8 C)
Relative Humidity: 74%
Pressure (altimeter): 30.07 in. Hg (1018 hPa)
Pressure tendency: 0.05 inches (1.7 hPa) lower than three hours ago
ob: KGNV 201753Z 06010KT 10SM SCT029 SCT039 BKN060 28/23 A3007 RMK AO2 SLP178 T02780228 10283 20222 58017
cycle: 18

Station Type Date Time Source
KGNV TAF 2020/10/20 18:45 UTC NOAA

TAF KGNV 201743Z 2018/2118 06008KT P6SM VCSH SCT020 BKN040 BKN250
TEMPO 2020/2024 VRB15G25KT 3SM +TSRA BR SCT010 BKN020CB OVC050
FM210000 06005KT P6SM SCT030 BKN070 BKN150
FM211400 07008KT P6SM SCT020 BKN050 BKN150

Example: see airport list